createdAt,value
2022-10-03T05:47:11.547Z,8.9
2022-10-03T05:52:53.712Z,9.9
2022-10-03T05:58:30.094Z,10.8
2022-10-03T06:04:07.506Z,11.7
2022-10-03T06:09:45.948Z,12.4
2022-10-03T06:15:22.850Z,13.3
2022-10-03T06:21:04.600Z,13.8
2022-10-03T06:26:47.740Z,14.4
2022-10-03T06:32:26.641Z,15.3
2022-10-03T06:43:31.709Z,19
2022-10-03T06:49:12.114Z,20.1
2022-10-03T06:54:54.757Z,20.6
2022-10-03T07:00:32.996Z,20.8
2022-10-03T07:06:14.434Z,20.4
2022-10-03T07:11:51.491Z,19.9
2022-10-03T07:18:12.146Z,19.2
2022-10-03T07:23:51.074Z,18.6
2022-10-03T07:29:18.735Z,18.1
2022-10-03T07:34:57.527Z,17.5
2022-10-03T07:40:34.449Z,17.1
2022-10-03T07:46:11.701Z,16.7
2022-10-03T07:51:53.706Z,16.4
2022-10-03T08:02:42.476Z,15.9
2022-10-03T08:08:21.531Z,15.7
2022-10-03T08:14:01.582Z,15.6
2022-10-03T08:19:27.328Z,15.4
2022-10-03T08:25:06.272Z,15.3
2022-10-03T08:30:43.155Z,15.2
2022-10-03T08:36:20.569Z,15.1
2022-10-03T08:41:59.597Z,15.2
2022-10-03T08:47:39.301Z,15.4
2022-10-03T08:53:16.484Z,16.3
2022-10-03T08:58:39.721Z,17.9
2022-10-03T09:04:51.677Z,19.6
2022-10-03T09:10:59.632Z,20.9
2022-10-03T09:16:38.317Z,22.9
2022-10-03T09:22:15.772Z,24
2022-10-03T09:27:53.123Z,23.9
2022-10-03T09:33:31.688Z,24.3
2022-10-03T09:39:09.203Z,26.6
2022-10-03T09:44:34.948Z,16.3
2022-10-03T09:50:14.005Z,26.4
2022-10-03T09:55:50.905Z,26.5
2022-10-03T12:03:28.757Z,36.1
2022-10-03T12:08:53.307Z,35.9
2022-10-03T12:14:15.962Z,37.6
2022-10-03T12:19:38.120Z,38.7
2022-10-03T12:24:33.359Z,39.3
2022-10-03T12:29:40.670Z,40
2022-10-03T12:35:02.501Z,40.5
2022-10-03T12:40:40.418Z,41.1
2022-10-03T12:46:17.591Z,41.6
2022-10-03T12:52:21.990Z,42.1
2022-10-03T12:57:59.928Z,42.5
2022-10-03T13:03:39.010Z,42.8
2022-10-03T13:09:38.631Z,43.2
2022-10-03T13:15:20.275Z,43.4
2022-10-03T13:20:57.505Z,43.6
2022-10-03T13:27:10.522Z,43.8
2022-10-03T13:38:11.524Z,43.9
2022-10-03T13:43:49.344Z,43.9
2022-10-03T13:49:28.638Z,43.9
2022-10-03T13:55:06.043Z,43.9
2022-10-03T14:00:46.082Z,43.8
2022-10-03T14:06:25.265Z,43.6
2022-10-03T14:12:02.019Z,43.3
2022-10-03T14:18:00.169Z,43
2022-10-03T14:23:38.643Z,42.7
2022-10-03T14:29:19.803Z,42.3
2022-10-03T14:35:20.138Z,41.9
2022-10-03T14:40:42.739Z,39.7
2022-10-03T14:46:13.113Z,37.4
2022-10-03T14:52:06.319Z,35.1
2022-10-03T14:58:09.625Z,33
2022-10-03T15:03:32.235Z,31
2022-10-03T15:08:38.072Z,29.6
2022-10-03T15:14:01.727Z,28.4
2022-10-03T15:19:44.841Z,27.4
2022-10-03T15:25:06.330Z,26.6
2022-10-03T15:30:31.722Z,25.8
2022-10-03T15:35:39.105Z,25
2022-10-03T15:41:16.254Z,24.2
2022-10-03T15:46:39.401Z,23.4
2022-10-03T15:52:01.269Z,22.6
2022-10-03T15:58:02.484Z,21.5
2022-10-03T16:03:46.576Z,20.5
2022-10-03T16:09:27.689Z,19.6
2022-10-03T16:14:50.697Z,18.9
2022-10-03T17:41:39.734Z,12.9
2022-10-03T17:47:07.225Z,12.6
2022-10-03T17:52:29.423Z,12.4
2022-10-03T17:57:56.206Z,12.1
2022-10-03T18:02:53.695Z,11.9
2022-10-03T18:08:16.043Z,11.7
2022-10-03T18:13:39.828Z,11.7
2022-10-03T18:19:02.867Z,11.4
2022-10-03T18:24:49.981Z,11.2
2022-10-03T18:30:39.326Z,11.1
2022-10-03T18:36:02.603Z,11
2022-10-03T18:41:08.953Z,10.9
2022-10-03T18:46:30.889Z,10.8
2022-10-03T18:52:44.296Z,10.8
2022-10-03T18:58:22.321Z,10.7
2022-10-03T19:04:01.474Z,10.6
2022-10-03T19:09:44.598Z,10.5
2022-10-03T19:15:21.829Z,10.4
2022-10-03T19:20:59.165Z,10.4
2022-10-03T19:27:00.757Z,10.3
2022-10-03T19:32:22.674Z,10.3
2022-10-03T19:38:02.234Z,10.2
2022-10-03T19:43:40.654Z,10.1
2022-10-03T19:49:02.946Z,10.1
2022-10-03T19:59:55.732Z,9.9
2022-10-03T20:05:33.235Z,9.9
2022-10-03T20:10:55.060Z,9.8
2022-10-03T20:16:01.991Z,9.8
2022-10-03T20:21:08.578Z,9.7
2022-10-03T20:25:59.549Z,9.6
2022-10-03T20:36:14.284Z,9.5
2022-10-03T20:41:23.934Z,9.4
2022-10-03T20:46:35.798Z,9.4
2022-10-03T20:51:42.082Z,9.3
2022-10-03T20:56:48.408Z,9.3
2022-10-03T21:02:00.455Z,9.3
2022-10-03T21:07:09.570Z,9.2
2022-10-03T21:12:48.824Z,9.1
2022-10-03T21:23:04.625Z,8.9
2022-10-03T21:33:19.405Z,8.8
2022-10-03T21:38:57.545Z,8.7
2022-10-03T21:44:35.189Z,8.6
2022-10-03T21:50:03.198Z,8.6
